Time;durP1;ratioP1;P1;durP2;ratioP2;P2;SDS_P1;SDS_P2;PMS_P1;PMS_P2;Temp;Humidity;BMP_temperature;BMP_pressure;BME280_temperature;BME280_humidity;BME280_pressure;Samples;Min_cycle;Max_cycle;Signal;HPM_P1;HPM_P2
2022/12/26 00:02:09;;;;;;;8.07;5.90;;;;;;;1.41;100.00;100595.01;1716690;82;21042;-59
2022/12/26 00:04:35;;;;;;;9.37;7.50;;;;;;;1.42;100.00;100595.45;1716809;82;21082;-59
2022/12/26 00:07:02;;;;;;;9.13;7.47;;;;;;;1.42;100.00;100595.02;1708130;82;21020;-58
2022/12/26 00:09:30;;;;;;;9.43;7.37;;;;;;;1.44;100.00;100600.33;1638179;86;21649;-59
2022/12/26 00:11:57;;;;;;;9.10;7.60;;;;;;;1.41;100.00;100601.20;1668144;82;21853;-59
2022/12/26 00:14:24;;;;;;;8.83;7.57;;;;;;;1.40;100.00;100591.47;1721935;82;22117;-59
2022/12/26 00:16:51;;;;;;;12.07;7.10;;;;;;;1.39;100.00;100591.45;1709858;82;21072;-59
2022/12/26 00:19:17;;;;;;;7.80;6.53;;;;;;;1.37;100.00;100591.89;1708152;82;21085;-59
2022/12/26 00:21:44;;;;;;;8.30;6.60;;;;;;;1.34;100.00;100587.48;1717861;81;21093;-58
2022/12/26 00:24:10;;;;;;;8.27;6.80;;;;;;;1.34;100.00;100593.23;1717257;82;21983;-59
2022/12/26 00:26:37;;;;;;;11.53;6.83;;;;;;;1.34;100.00;100591.91;1677810;84;21048;-58
2022/12/26 00:29:04;;;;;;;8.23;7.17;;;;;;;1.33;100.00;100591.02;1718268;82;21038;-58
2022/12/26 00:31:32;;;;;;;6.27;5.43;;;;;;;1.30;100.00;100592.32;1714576;82;21432;-59
2022/12/26 00:33:59;;;;;;;11.40;7.27;;;;;;;1.29;100.00;100597.18;1713933;82;21543;-59
2022/12/26 00:36:28;;;;;;;8.80;6.93;;;;;;;1.28;100.00;100598.06;1711063;82;21825;-58
2022/12/26 00:38:56;;;;;;;6.27;5.67;;;;;;;1.29;100.00;100598.51;1712397;82;21082;-59
2022/12/26 00:41:23;;;;;;;6.70;6.03;;;;;;;1.29;100.00;100604.25;1714567;82;20995;-58
2022/12/26 00:43:49;;;;;;;6.70;5.43;;;;;;;1.26;100.00;100600.28;1717378;82;21458;-58
2022/12/26 00:46:16;;;;;;;5.93;5.33;;;;;;;1.25;100.00;100604.70;1713117;82;20987;-59
2022/12/26 00:48:42;;;;;;;5.80;5.23;;;;;;;1.24;100.00;100605.58;1710730;82;21768;-58
2022/12/26 00:51:09;;;;;;;7.60;5.67;;;;;;;1.24;100.00;100606.91;1716237;81;20999;-59
2022/12/26 00:53:35;;;;;;;5.50;5.00;;;;;;;1.26;100.00;100607.80;1714594;82;20959;-58
2022/12/26 00:56:01;;;;;;;6.50;5.37;;;;;;;1.27;100.00;100617.53;1721416;82;20944;-58
2022/12/26 00:58:28;;;;;;;6.57;5.60;;;;;;;1.28;100.00;100619.28;1719480;82;22032;-58
2022/12/26 01:00:54;;;;;;;6.53;5.37;;;;;;;1.28;100.00;100612.64;1719903;82;21783;-59
2022/12/26 01:03:21;;;;;;;6.30;5.70;;;;;;;1.28;100.00;100611.76;1711629;82;21002;-59
2022/12/26 01:05:49;;;;;;;5.87;5.30;;;;;;;1.28;100.00;100613.97;1721509;82;21010;-58
2022/12/26 01:08:17;;;;;;;5.63;5.07;;;;;;;1.28;100.00;100610.43;1719068;82;20975;-58
2022/12/26 01:10:44;;;;;;;5.60;4.70;;;;;;;1.26;100.00;100605.15;1715465;82;21018;-59
2022/12/26 01:13:12;;;;;;;6.90;4.13;;;;;;;1.23;100.00;100612.20;1717232;82;21793;-58
2022/12/26 01:15:38;;;;;;;6.03;5.43;;;;;;;1.20;100.00;100610.41;1713581;82;21062;-59
2022/12/26 01:18:05;;;;;;;5.03;4.63;;;;;;;1.16;100.00;100599.80;1710231;82;21054;-58
2022/12/26 01:20:32;;;;;;;4.77;4.37;;;;;;;1.14;100.00;100598.03;1712672;82;21396;-59
2022/12/26 01:22:58;;;;;;;4.57;4.03;;;;;;;1.17;100.00;100594.95;1676857;84;21630;-58
2022/12/26 01:25:24;;;;;;;5.50;3.93;;;;;;;1.16;100.00;100594.06;1665347;84;21922;-58
2022/12/26 01:27:51;;;;;;;4.77;2.87;;;;;;;1.17;100.00;100593.63;1708991;82;21609;-58
2022/12/26 01:30:18;;;;;;;4.67;4.27;;;;;;;1.19;100.00;100597.17;1709573;82;21135;-58
2022/12/26 01:32:44;;;;;;;5.13;4.63;;;;;;;1.21;100.00;100599.36;1710847;82;21057;-58
2022/12/26 01:35:10;;;;;;;4.77;4.23;;;;;;;1.22;100.00;100593.19;1709697;82;21605;-58
2022/12/26 01:37:37;;;;;;;7.87;5.37;;;;;;;1.20;100.00;100591.84;1726956;81;21912;-58
2022/12/26 01:40:05;;;;;;;6.07;4.73;;;;;;;1.18;100.00;100590.09;1699959;82;21354;-59
2022/12/26 01:42:37;;;;;;;5.63;5.13;;;;;;;1.16;100.00;100594.50;1729870;82;21056;-58
2022/12/26 01:45:23;;;;;;;4.93;4.50;;;;;;;1.14;100.00;100595.38;1689628;83;21072;-58
2022/12/26 01:48:22;;;;;;;7.10;5.87;;;;;;;1.14;100.00;100607.31;1720093;82;21593;-57
2022/12/26 01:50:59;;;;;;;5.43;4.93;;;;;;;1.14;100.00;100617.92;1723175;82;22859;-58
2022/12/26 01:53:37;;;;;;;6.27;5.17;;;;;;;1.15;100.00;100604.22;1727125;82;21575;-58
2022/12/26 01:56:07;;;;;;;6.10;5.47;;;;;;;1.16;100.00;100606.44;1731981;82;21069;-58
2022/12/26 01:58:44;;;;;;;5.37;4.87;;;;;;;1.15;100.00;100609.52;1730051;82;21124;-58
2022/12/26 02:01:11;;;;;;;4.87;4.00;;;;;;;1.16;100.00;100611.73;1730751;82;21548;-58
2022/12/26 02:06:24;;;;;;;3.57;3.27;;;;;;;1.16;100.00;100608.65;1726509;80;21525;-58
2022/12/26 02:08:51;;;;;;;5.63;5.13;;;;;;;1.18;100.00;100609.98;1728721;82;21096;-58
2022/12/26 02:11:37;;;;;;;5.70;4.90;;;;;;;1.18;100.00;100602.92;1727476;82;21096;-58
2022/12/26 02:14:05;;;;;;;4.57;4.27;;;;;;;1.17;100.00;100601.58;1729273;82;21069;-58
2022/12/26 02:16:31;;;;;;;4.77;4.23;;;;;;;1.17;100.00;100596.28;1725175;82;21962;-58
2022/12/26 02:18:58;;;;;;;5.17;4.67;;;;;;;1.17;100.00;100594.95;1703543;82;21076;-58
2022/12/26 02:21:52;;;;;;;5.43;4.93;;;;;;;1.17;100.00;100591.86;1727753;81;21037;-58
2022/12/26 02:24:31;;;;;;;5.37;4.87;;;;;;;1.16;100.00;100589.20;1733949;82;22219;-57
2022/12/26 02:27:41;;;;;;;5.00;4.50;;;;;;;1.16;100.00;100601.12;1723885;82;21590;-57
2022/12/26 02:30:42;;;;;;;7.23;6.27;;;;;;;1.14;100.00;100598.03;1726362;82;21809;-57
2022/12/26 02:33:42;;;;;;;6.23;4.53;;;;;;;1.13;100.00;100594.05;1724737;82;21053;-58
2022/12/26 02:36:47;;;;;;;6.30;5.00;;;;;;;1.12;100.00;100587.85;1723679;82;21118;-58
2022/12/26 02:39:51;;;;;;;5.03;4.53;;;;;;;1.14;100.00;100591.41;1690897;83;22418;-58
2022/12/26 02:42:37;;;;;;;4.70;4.27;;;;;;;1.16;100.00;100583.89;1723349;82;21053;-58
2022/12/26 02:48:53;;;;;;;5.97;4.73;;;;;;;1.16;100.00;100579.48;1727942;82;21030;-58
2022/12/26 06:31:13;;;;;;;10.83;7.33;;;;;;;0.77;100.00;100634.53;1771910;78;28163;-55
2022/12/26 06:33:39;;;;;;;11.37;7.43;;;;;;;0.72;100.00;100655.72;1745821;80;21131;-55
2022/12/26 06:36:10;;;;;;;9.00;6.87;;;;;;;0.70;100.00;100648.19;1741480;80;23661;-55
2022/12/26 06:38:36;;;;;;;6.43;5.87;;;;;;;0.71;100.00;100653.95;1680731;83;21821;-56
2022/12/26 06:41:07;;;;;;;9.43;6.73;;;;;;;0.71;100.00;100647.32;1710279;81;21637;-56
2022/12/26 06:43:34;;;;;;;7.30;5.83;;;;;;;0.74;100.00;100647.78;1691788;82;21175;-57
2022/12/26 06:46:02;;;;;;;6.90;5.83;;;;;;;0.77;100.00;100650.43;1692491;83;21077;-57
2022/12/26 06:48:28;;;;;;;8.40;7.23;;;;;;;0.80;100.00;100649.57;1693266;82;21859;-56
2022/12/26 06:50:55;;;;;;;8.17;6.73;;;;;;;0.83;100.00;100654.47;1696028;83;21101;-56
2022/12/26 06:53:23;;;;;;;7.50;6.27;;;;;;;0.87;100.00;100657.56;1700542;82;21107;-56
2022/12/26 06:55:50;;;;;;;10.50;7.67;;;;;;;0.90;100.00;100658.02;1693924;82;21167;-57
2022/12/26 06:58:17;;;;;;;11.33;7.47;;;;;;;0.92;100.00;100661.58;1697948;82;21093;-56
2022/12/26 07:00:44;;;;;;;10.20;7.53;;;;;;;0.94;100.00;100651.84;1695496;83;22466;-56
2022/12/26 07:03:10;;;;;;;12.87;7.93;;;;;;;0.96;100.00;100648.33;1691701;83;21069;-56
2022/12/26 07:05:37;;;;;;;10.03;8.33;;;;;;;0.96;100.00;100654.95;1693101;82;21068;-57
2022/12/26 07:08:05;;;;;;;9.90;7.07;;;;;;;0.96;100.00;100646.11;1697777;82;21049;-57
2022/12/26 07:10:35;;;;;;;9.03;6.90;;;;;;;0.96;100.00;100640.37;1694632;82;21054;-56
2022/12/26 07:13:03;;;;;;;8.07;6.37;;;;;;;0.96;100.00;100639.05;1678507;83;21407;-56
2022/12/26 07:15:30;;;;;;;6.87;5.80;;;;;;;0.97;100.00;100638.17;1671119;83;21062;-57
2022/12/26 07:17:56;;;;;;;6.70;6.07;;;;;;;0.98;100.00;100628.02;1676939;83;21040;-57
2022/12/26 07:20:23;;;;;;;9.07;8.17;;;;;;;0.99;100.00;100632.89;1676056;83;21065;-56
2022/12/26 07:22:49;;;;;;;18.87;7.30;;;;;;;1.01;100.00;100629.81;1673119;83;21112;-57
2022/12/26 07:25:17;;;;;;;6.40;5.73;;;;;;;1.03;100.00;100632.00;1669569;84;21084;-56
2022/12/26 07:27:44;;;;;;;7.33;6.60;;;;;;;1.05;100.00;100632.47;1674253;83;21109;-57
2022/12/26 07:30:11;;;;;;;7.33;6.47;;;;;;;1.06;100.00;100627.61;1660802;84;21525;-56
2022/12/26 07:32:38;;;;;;;6.97;6.33;;;;;;;1.07;100.00;100629.39;1650388;85;21182;-56
2022/12/26 07:35:05;;;;;;;7.97;7.17;;;;;;;1.05;100.00;100626.27;1650903;85;21071;-56
2022/12/26 07:37:31;;;;;;;10.47;9.00;;;;;;;1.03;100.00;100620.95;1650913;86;21848;-56
2022/12/26 07:39:58;;;;;;;7.50;6.70;;;;;;;1.03;100.00;100616.09;1653468;85;21588;-56
2022/12/26 07:42:24;;;;;;;5.97;4.90;;;;;;;1.04;100.00;100620.08;1646311;85;21075;-57
2022/12/26 07:44:51;;;;;;;12.60;10.00;;;;;;;1.06;100.00;100620.98;1650204;85;21003;-57
2022/12/26 07:47:17;;;;;;;7.87;6.13;;;;;;;1.08;100.00;100622.32;1649319;85;21655;-57
2022/12/26 07:49:44;;;;;;;6.67;6.07;;;;;;;1.11;100.00;100623.64;1626905;86;21859;-56
2022/12/26 07:52:10;;;;;;;9.70;8.00;;;;;;;1.13;100.00;100620.12;1720278;82;20963;-56
2022/12/26 07:54:37;;;;;;;7.13;5.90;;;;;;;1.16;100.00;100623.23;1682678;83;21544;-57
2022/12/26 07:57:03;;;;;;;8.67;7.77;;;;;;;1.15;100.00;100626.77;1715341;82;21144;-56
2022/12/26 07:59:30;;;;;;;6.73;5.83;;;;;;;1.14;100.00;100629.85;1714447;82;21108;-56
2022/12/26 08:01:58;;;;;;;9.23;7.13;;;;;;;1.15;100.00;100626.77;1714704;82;21850;-56
2022/12/26 08:04:25;;;;;;;7.60;6.90;;;;;;;1.16;100.00;100624.56;1718450;82;21090;-56
2022/12/26 08:06:51;;;;;;;7.13;6.40;;;;;;;1.16;100.00;100629.86;1673810;85;21037;-56
2022/12/26 08:09:18;;;;;;;9.70;6.40;;;;;;;1.16;100.00;100626.33;1683268;83;21140;-56
2022/12/26 08:11:44;;;;;;;8.53;6.63;;;;;;;1.14;100.00;100630.29;1682929;83;21061;-57
2022/12/26 08:14:11;;;;;;;6.70;6.10;;;;;;;1.13;100.00;100624.53;1675968;83;22627;-57
2022/12/26 08:16:38;;;;;;;7.30;6.60;;;;;;;1.14;100.00;100628.52;1683807;84;21446;-58
2022/12/26 08:19:04;;;;;;;7.47;6.67;;;;;;;1.13;100.00;100628.08;1712982;82;20972;-57
2022/12/26 08:21:30;;;;;;;8.50;7.70;;;;;;;1.16;100.00;100625.88;1719836;82;21010;-57
2022/12/26 08:23:57;;;;;;;10.00;8.33;;;;;;;1.19;100.00;100627.23;1718252;82;20986;-57
2022/12/26 08:26:23;;;;;;;11.77;9.53;;;;;;;1.23;100.00;100629.44;1719150;82;21825;-57
2022/12/26 08:28:50;;;;;;;15.13;9.23;;;;;;;1.24;100.00;100626.80;1711794;82;21061;-57
2022/12/26 08:31:17;;;;;;;10.63;9.07;;;;;;;1.25;100.00;100626.36;1722429;81;21128;-57
2022/12/26 08:33:43;;;;;;;13.93;9.27;;;;;;;1.25;100.00;100635.20;1724567;81;21073;-58
2022/12/26 08:36:11;;;;;;;11.63;8.67;;;;;;;1.27;100.00;100628.58;1723871;82;21049;-58
2022/12/26 08:38:39;;;;;;;13.07;10.20;;;;;;;1.27;100.00;100624.16;1720979;81;21835;-57
2022/12/26 08:41:05;;;;;;;16.27;11.90;;;;;;;1.25;100.00;100624.59;1726851;81;21055;-58
2022/12/26 08:43:32;;;;;;;12.83;10.07;;;;;;;1.26;100.00;100633.44;1724443;81;21094;-58
2022/12/26 08:46:05;;;;;;;10.47;9.37;;;;;;;1.26;100.00;100636.09;1726873;82;21104;-58
2022/12/26 08:48:32;;;;;;;10.10;9.10;;;;;;;1.24;100.00;100630.77;1728500;81;21071;-56
2022/12/26 08:51:08;;;;;;;10.43;9.27;;;;;;;1.24;100.00;100635.19;1704619;81;22946;-56
2022/12/26 08:53:35;;;;;;;8.50;7.73;;;;;;;1.23;100.00;100634.30;1722761;82;21108;-57
2022/12/26 08:56:06;;;;;;;8.00;7.30;;;;;;;1.23;100.00;100627.67;1724061;81;21024;-57
2022/12/26 08:58:34;;;;;;;7.90;7.20;;;;;;;1.23;100.00;100630.33;1723386;81;21327;-57
2022/12/26 09:01:14;;;;;;;7.60;6.67;;;;;;;1.24;100.00;100624.58;1685480;83;21036;-56
2022/12/26 09:03:40;;;;;;;12.27;11.20;;;;;;;1.24;100.00;100621.48;1687900;83;21853;-57
2022/12/26 09:06:07;;;;;;;7.90;7.13;;;;;;;1.28;100.00;100617.06;1664751;84;21074;-57
2022/12/26 09:08:34;;;;;;;8.80;7.90;;;;;;;1.30;100.00;100621.50;1664082;84;21070;-57
2022/12/26 09:11:06;;;;;;;10.73;9.60;;;;;;;1.33;100.00;100612.67;1668550;84;21567;-58
2022/12/26 09:13:32;;;;;;;10.20;9.20;;;;;;;1.36;100.00;100611.38;1666528;84;21061;-58
2022/12/26 09:16:11;;;;;;;9.83;8.70;;;;;;;1.38;100.00;100605.60;1665506;85;21850;-58
2022/12/26 09:18:38;;;;;;;8.27;7.47;;;;;;;1.39;100.00;100601.62;1672399;84;21065;-58
2022/12/26 09:21:08;;;;;;;7.40;6.70;;;;;;;1.40;100.00;100594.13;1669747;84;21062;-58
2022/12/26 09:23:35;;;;;;;7.60;6.27;;;;;;;1.41;100.00;100598.55;1669752;84;22352;-57
2022/12/26 09:26:11;;;;;;;7.13;6.43;;;;;;;1.41;100.00;100590.59;1667861;84;21077;-57
2022/12/26 09:28:39;;;;;;;9.30;7.00;;;;;;;1.41;100.00;100584.39;1668297;84;21875;-57
2022/12/26 09:31:09;;;;;;;4.27;3.87;;;;;;;1.43;100.00;100582.64;1663797;85;21105;-56
2022/12/26 09:33:36;;;;;;;3.67;3.37;;;;;;;1.45;100.00;100574.22;1706204;82;21086;-57
2022/12/26 09:36:08;;;;;;;4.20;3.77;;;;;;;1.46;100.00;100571.57;1720304;82;21457;-57
2022/12/26 09:38:35;;;;;;;5.03;4.53;;;;;;;1.46;100.00;100574.22;1717582;82;21364;-57
2022/12/26 09:41:22;;;;;;;5.50;5.00;;;;;;;1.46;100.00;100566.27;1719788;82;21810;-57
2022/12/26 09:44:06;;;;;;;4.40;4.00;;;;;;;1.47;100.00;100572.02;1710352;82;21065;-57
2022/12/26 09:46:53;;;;;;;4.58;3.58;;;;;;;1.48;100.00;100573.80;1722561;82;25673;-57
2022/12/26 09:49:35;;;;;;;6.57;4.67;;;;;;;1.49;100.00;100572.91;1720412;82;21837;-57
2022/12/26 09:52:13;;;;;;;6.30;5.87;;;;;;;1.49;100.00;100572.91;1715761;82;21544;-57
2022/12/26 09:54:44;;;;;;;5.60;5.10;;;;;;;1.50;100.00;100578.67;1712923;82;21817;-58
2022/12/26 09:57:20;;;;;;;5.80;5.10;;;;;;;1.51;100.00;100576.47;1720320;81;21006;-58
2022/12/26 09:59:57;;;;;;;7.17;6.57;;;;;;;1.53;100.00;100573.34;1716938;82;21489;-60
2022/12/26 10:02:24;;;;;;;7.80;7.07;;;;;;;1.54;100.00;100575.56;1691836;82;21104;-59
2022/12/26 10:04:52;;;;;;;6.10;5.53;;;;;;;1.57;100.00;100574.69;1716228;82;21093;-58
2022/12/26 10:07:36;;;;;;;7.63;6.83;;;;;;;1.56;100.00;100568.50;1722917;82;21840;-58
2022/12/26 10:10:26;;;;;;;6.07;5.53;;;;;;;1.58;100.00;100566.73;1709338;82;21071;-58
2022/12/26 10:12:57;;;;;;;8.37;7.50;;;;;;;1.58;100.00;100566.73;1721037;82;21048;-58
2022/12/26 10:15:44;;;;;;;7.93;5.03;;;;;;;1.58;100.00;100566.73;1714731;82;21140;-58
2022/12/26 10:18:31;;;;;;;7.53;6.80;;;;;;;1.59;100.00;100566.30;1718813;82;21073;-58
2022/12/26 10:21:35;;;;;;;136.90;63.50;;;;;;;1.60;100.00;100565.41;1718281;82;21834;-58
2022/12/26 10:24:15;;;;;;;55.00;32.20;;;;;;;1.60;100.00;100570.28;1721066;82;21108;-58
2022/12/26 10:28:02;;;;;;;6.17;5.57;;;;;;;1.59;100.00;100545.95;1774292;78;22331;-57
2022/12/26 10:30:36;;;;;;;5.77;5.27;;;;;;;1.59;100.00;100567.62;1747451;80;21036;-58
2022/12/26 10:33:08;;;;;;;7.23;5.47;;;;;;;1.59;100.00;100559.66;1694890;83;23049;-57
2022/12/26 10:35:41;;;;;;;7.27;6.60;;;;;;;1.60;100.00;100553.47;1680009;83;21610;-58
2022/12/26 10:38:38;;;;;;;5.77;5.20;;;;;;;1.62;100.00;100553.01;1715632;81;20990;-58
2022/12/26 10:41:15;;;;;;;8.37;7.57;;;;;;;1.63;100.00;100544.16;1714307;81;21013;-58
2022/12/26 10:43:43;;;;;;;10.13;9.13;;;;;;;1.67;100.00;100548.61;1719987;81;21001;-58
2022/12/26 10:46:30;;;;;;;6.67;6.07;;;;;;;1.67;100.00;100539.32;1716132;82;21834;-58
2022/12/26 10:48:57;;;;;;;6.10;5.50;;;;;;;1.67;100.00;100532.24;1701632;82;21582;-58
2022/12/26 10:51:26;;;;;;;4.93;4.60;;;;;;;1.69;100.00;100536.23;1681567;83;21042;-58
2022/12/26 10:53:53;;;;;;;6.13;4.40;;;;;;;1.69;100.00;100531.81;1712696;81;21076;-58
2022/12/26 10:56:21;;;;;;;9.57;7.23;;;;;;;1.70;100.00;100535.34;1720210;81;21074;-58
2022/12/26 10:58:58;;;;;;;6.70;6.00;;;;;;;1.72;100.00;100532.23;1720824;81;21848;-58
2022/12/26 11:01:33;;;;;;;7.60;6.07;;;;;;;1.74;100.00;100528.70;1698403;83;21442;-58
2022/12/26 11:04:06;;;;;;;6.90;6.00;;;;;;;1.75;100.00;100530.91;1705671;83;20967;-58
2022/12/26 11:06:40;;;;;;;7.80;6.40;;;;;;;1.76;100.00;100528.27;1701454;83;20975;-58
2022/12/26 11:09:06;;;;;;;8.60;6.80;;;;;;;1.76;100.00;100524.28;1698337;81;21517;-58
2022/12/26 11:11:47;;;;;;;11.93;8.43;;;;;;;1.75;100.00;100529.14;1707562;81;21834;-58
2022/12/26 11:14:36;;;;;;;9.33;6.80;;;;;;;1.73;100.00;100512.77;1669020;84;21049;-59
2022/12/26 11:17:10;;;;;;;10.93;7.67;;;;;;;1.71;100.00;100519.39;1669731;84;21046;-60
2022/12/26 11:19:40;;;;;;;7.75;6.95;;;;;;;1.70;100.00;100526.06;1684993;84;22981;-60
2022/12/26 11:22:26;;;;;;;10.13;7.57;;;;;;;1.69;100.00;100512.34;1692644;83;21064;-59
2022/12/26 11:25:17;;;;;;;7.90;6.93;;;;;;;1.65;100.00;100510.56;1685035;83;21727;-60
2022/12/26 11:27:48;;;;;;;12.80;8.13;;;;;;;1.64;100.00;100508.34;1658714;85;21105;-59
2022/12/26 11:30:20;;;;;;;11.93;9.20;;;;;;;1.66;100.00;100502.61;1716694;82;21064;-59
2022/12/26 11:33:02;;;;;;;11.33;8.80;;;;;;;1.68;100.00;100506.59;1717154;82;21047;-60
2022/12/26 11:35:33;;;;;;;12.27;9.43;;;;;;;1.70;100.00;100499.05;1716302;82;21108;-59
2022/12/26 11:37:57;;;;;;;8.20;6.93;;;;;;;1.72;100.00;100501.27;1722868;82;21855;-60
2022/12/26 11:41:30;;;;;;;9.93;8.27;;;;;;;1.70;100.00;100488.43;1711410;82;21543;-60
2022/12/26 11:43:10;;;;;;;13.67;10.53;;;;;;;1.69;100.00;100488.45;1717588;82;22353;-60
2022/12/26 11:45:41;;;;;;;8.23;7.27;;;;;;;1.70;100.00;100503.50;1693653;82;21734;-59
2022/12/26 11:48:21;;;;;;;8.07;7.20;;;;;;;1.69;100.00;100499.08;1711267;82;21088;-60
2022/12/26 11:50:47;;;;;;;7.50;6.80;;;;;;;1.69;100.00;100496.42;1712552;82;21821;-59
2022/12/26 11:53:17;;;;;;;7.97;7.13;;;;;;;1.69;100.00;100496.42;1715687;82;21112;-60
2022/12/26 11:55:44;;;;;;;5.93;5.43;;;;;;;1.69;100.00;100501.73;1679998;83;21086;-59
2022/12/26 11:58:20;;;;;;;5.03;4.60;;;;;;;1.70;100.00;100495.54;1637953;85;21117;-59
2022/12/26 12:01:01;;;;;;;6.03;5.40;;;;;;;1.69;100.00;100499.96;1666587;84;21174;-59
2022/12/26 12:03:44;;;;;;;8.23;6.00;;;;;;;1.72;100.00;100495.95;1665667;84;21848;-59
2022/12/26 12:06:46;;;;;;;6.70;6.10;;;;;;;1.74;100.00;100493.31;1670199;84;21022;-59
2022/12/26 12:09:53;;;;;;;5.93;5.23;;;;;;;1.73;100.00;100496.40;1719042;82;21483;-59
2022/12/26 12:12:43;;;;;;;7.40;6.67;;;;;;;1.72;100.00;100494.63;1716332;82;21050;-60
2022/12/26 12:15:26;;;;;;;5.93;5.37;;;;;;;1.73;100.00;100482.25;1711134;82;21108;-59
2022/12/26 12:18:15;;;;;;;6.20;5.60;;;;;;;1.72;100.00;100479.14;1706945;82;22091;-58
2022/12/26 12:21:12;;;;;;;10.67;9.60;;;;;;;1.70;100.00;100488.43;1703674;82;21022;-58
2022/12/26 12:24:04;;;;;;;5.57;4.83;;;;;;;1.70;100.00;100496.87;1715407;82;21127;-58
2022/12/26 12:26:52;;;;;;;6.50;5.90;;;;;;;1.68;100.00;100491.55;1671525;83;21081;-59
2022/12/26 12:29:42;;;;;;;6.10;5.50;;;;;;;1.68;100.00;100493.32;1700650;82;21081;-58
2022/12/26 12:32:23;;;;;;;7.87;6.67;;;;;;;1.66;100.00;100488.45;1705865;82;21918;-58
2022/12/26 12:35:25;;;;;;;6.33;5.70;;;;;;;1.66;100.00;100480.48;1699308;82;21057;-59
2022/12/26 12:38:32;;;;;;;8.33;7.17;;;;;;;1.65;100.00;100465.00;1704347;82;21684;-59
2022/12/26 12:41:29;;;;;;;7.13;6.50;;;;;;;1.66;100.00;100464.13;1671991;83;21081;-59
2022/12/26 12:44:10;;;;;;;7.00;6.33;;;;;;;1.67;100.00;100465.01;1709331;82;21033;-59
2022/12/26 12:47:12;;;;;;;8.07;6.53;;;;;;;1.67;100.00;100472.97;1672340;84;22016;-59
2022/12/26 12:50:14;;;;;;;6.53;6.03;;;;;;;1.64;100.00;100470.31;1703054;82;21074;-59
2022/12/26 12:52:59;;;;;;;7.60;6.90;;;;;;;1.61;100.00;100469.89;1671778;83;21053;-59
2022/12/26 12:56:12;;;;;;;8.43;6.70;;;;;;;1.58;100.00;100467.67;1704038;82;21117;-59
2022/12/26 12:59:05;;;;;;;14.07;8.87;;;;;;;1.56;100.00;100478.72;1699351;82;21752;-59
2022/12/26 13:01:45;;;;;;;11.05;8.60;;;;;;;1.55;100.00;100470.31;1702402;82;21915;-59
2022/12/26 13:04:18;;;;;;;9.13;8.23;;;;;;;1.55;100.00;100463.23;1705060;82;21709;-60
2022/12/26 13:07:24;;;;;;;9.63;8.17;;;;;;;1.55;100.00;100457.93;1670783;84;21116;-60
2022/12/26 13:10:12;;;;;;;12.60;9.80;;;;;;;1.57;100.00;100452.19;1707466;82;21066;-59
2022/12/26 13:12:45;;;;;;;14.20;11.63;;;;;;;1.57;100.00;100456.17;1703606;81;21074;-59
2022/12/26 13:15:36;;;;;;;13.43;10.73;;;;;;;1.56;100.00;100440.24;1711048;82;21971;-59
2022/12/26 13:18:09;;;;;;;12.50;10.33;;;;;;;1.54;100.00;100437.58;1709564;82;21112;-60
2022/12/26 13:20:42;;;;;;;12.80;10.60;;;;;;;1.50;100.00;100436.72;1702104;82;21132;-59
2022/12/26 13:26:19;;;;;;;13.57;10.33;;;;;;;1.44;100.00;100427.45;1700822;82;21553;-59
2022/12/26 13:29:10;;;;;;;9.27;8.33;;;;;;;1.41;100.00;100424.79;1713942;81;21803;-61
2022/12/26 13:31:41;;;;;;;10.70;9.03;;;;;;;1.38;100.00;100419.91;1720325;82;21125;-60
2022/12/26 13:34:16;;;;;;;15.73;10.63;;;;;;;1.35;100.00;100423.48;1716991;81;20988;-58
2022/12/26 13:36:54;;;;;;;11.60;9.80;;;;;;;1.32;100.00;100416.83;1716252;82;20985;-60
2022/12/26 13:39:33;;;;;;;11.63;8.83;;;;;;;1.29;100.00;100414.61;1696554;82;20987;-60
2022/12/26 13:45:23;;;;;;;12.33;9.87;;;;;;;1.26;100.00;100410.66;1725219;81;21502;-58
2022/12/26 13:47:53;;;;;;;12.43;11.00;;;;;;;1.25;100.00;100410.21;1687368;81;21097;-58
2022/12/26 13:50:50;;;;;;;16.97;10.43;;;;;;;1.22;100.00;100415.06;1711982;81;21089;-59
2022/12/26 13:53:36;;;;;;;15.47;11.97;;;;;;;1.22;100.00;100419.48;1718657;81;20954;-60
2022/12/26 13:56:22;;;;;;;16.10;11.77;;;;;;;1.20;100.00;100413.28;1725366;81;22042;-59
2022/12/26 13:59:13;;;;;;;15.07;12.17;;;;;;;1.16;100.00;100411.09;1719655;81;21016;-59
2022/12/26 14:02:10;;;;;;;17.13;11.63;;;;;;;1.13;100.00;100402.69;1708283;81;20990;-59
2022/12/26 14:05:10;;;;;;;16.13;12.20;;;;;;;1.09;100.00;100388.12;1711066;81;20982;-59
2022/12/26 14:08:09;;;;;;;14.83;10.33;;;;;;;1.04;100.00;100386.77;1711771;81;21056;-59
2022/12/26 14:10:58;;;;;;;14.47;11.73;;;;;;;1.02;100.00;100386.36;1712067;83;21918;-59
2022/12/26 14:13:45;;;;;;;14.60;10.63;;;;;;;0.99;100.00;100375.73;1708503;82;21024;-58
2022/12/26 14:16:38;;;;;;;14.47;11.20;;;;;;;0.97;100.00;100384.12;1721242;81;21099;-59
2022/12/26 14:19:23;;;;;;;13.70;9.37;;;;;;;0.96;100.00;100387.66;1716141;81;21564;-59
2022/12/26 14:21:55;;;;;;;14.90;10.13;;;;;;;0.94;100.00;100387.65;1677260;83;21063;-59
2022/12/26 14:24:27;;;;;;;13.77;10.27;;;;;;;0.92;100.00;100393.41;1671471;83;21972;-59
2022/12/26 14:27:02;;;;;;;12.70;10.53;;;;;;;0.90;100.00;100391.64;1659463;84;21039;-59
2022/12/26 14:30:13;;;;;;;14.47;11.70;;;;;;;0.89;100.00;100399.14;1661113;85;21060;-59
2022/12/26 14:32:48;;;;;;;15.07;10.47;;;;;;;0.87;100.00;100403.55;1648011;84;21060;-59
2022/12/26 14:35:38;;;;;;;15.87;11.07;;;;;;;0.82;100.00;100399.58;1659599;84;21098;-58
2022/12/26 14:38:41;;;;;;;14.23;10.90;;;;;;;0.80;100.00;100397.80;1659813;84;21875;-58
2022/12/26 14:44:25;;;;;;;11.97;9.67;;;;;;;0.75;100.00;100385.45;1667703;84;21049;-59
2022/12/26 14:46:55;;;;;;;14.33;12.17;;;;;;;0.77;100.00;100378.80;1663549;84;21064;-59
2022/12/26 14:49:36;;;;;;;16.57;10.23;;;;;;;0.79;100.00;100380.13;1671193;84;21062;-59
2022/12/26 14:52:28;;;;;;;16.83;12.03;;;;;;;0.76;100.00;100383.69;1661190;84;21958;-59
2022/12/26 14:54:54;;;;;;;16.23;11.57;;;;;;;0.73;100.00;100375.28;1668973;84;21062;-59
2022/12/26 14:57:45;;;;;;;18.67;12.43;;;;;;;0.72;100.00;100375.27;1667856;84;21066;-58
2022/12/26 15:00:23;;;;;;;18.77;12.20;;;;;;;0.69;100.00;100369.52;1668185;84;21112;-58
2022/12/26 15:03:05;;;;;;;17.77;11.07;;;;;;;0.66;100.00;100368.65;1669258;84;21121;-58
2022/12/26 15:05:35;;;;;;;14.53;11.43;;;;;;;0.62;100.00;100369.07;1666592;84;22007;-58
2022/12/26 15:08:55;;;;;;;13.93;10.60;;;;;;;0.60;100.00;100372.16;1673455;85;21066;-58
2022/12/26 15:12:11;;;;;;;12.10;9.10;;;;;;;0.58;100.00;100375.27;1668181;84;21170;-58
2022/12/26 15:14:52;;;;;;;13.60;9.83;;;;;;;0.59;100.00;100377.47;1674011;83;21564;-59
2022/12/26 15:17:42;;;;;;;11.67;8.47;;;;;;;0.58;100.00;100373.94;1668131;84;21062;-58
2022/12/26 15:20:45;;;;;;;9.87;6.43;;;;;;;0.57;100.00;100362.89;1666751;84;21843;-58
2022/12/26 15:23:50;;;;;;;10.73;8.27;;;;;;;0.53;100.00;100339.03;1660399;85;21084;-58
2022/12/26 15:26:36;;;;;;;10.38;8.95;;;;;;;0.49;100.00;100336.84;1663379;84;21081;-58
2022/12/26 15:29:35;;;;;;;9.70;7.83;;;;;;;0.47;100.00;100337.27;1641765;84;21627;-59
2022/12/26 15:32:37;;;;;;;11.43;8.17;;;;;;;0.47;100.00;100325.34;1637886;86;21072;-59
2022/12/26 15:35:15;;;;;;;10.93;8.50;;;;;;;0.49;100.00;100301.08;1634883;85;22620;-58
2022/12/26 15:37:59;;;;;;;12.53;8.17;;;;;;;0.49;100.00;100294.45;1638601;85;21104;-58
2022/12/26 15:40:38;;;;;;;11.57;9.20;;;;;;;0.47;100.00;100279.00;1638335;85;21488;-58
2022/12/26 15:43:26;;;;;;;11.13;8.47;;;;;;;0.44;100.00;100272.36;1641023;85;21068;-59
2022/12/26 15:46:19;;;;;;;8.83;7.63;;;;;;;0.42;100.00;100267.53;1642198;85;21139;-58
2022/12/26 15:49:22;;;;;;;15.30;8.13;;;;;;;0.44;100.00;100283.39;1665511;85;21949;-58
2022/12/26 15:52:17;;;;;;;13.90;8.40;;;;;;;0.44;100.00;100278.09;1666570;85;21069;-58
2022/12/26 15:55:21;;;;;;;11.45;8.13;;;;;;;0.46;100.00;100290.47;1673857;83;23782;-59
2022/12/26 16:03:07;;;;;;;10.93;7.90;;;;;;;0.47;100.00;100319.16;1666208;83;21084;-54
2022/12/26 16:05:57;;;;;;;11.80;8.83;;;;;;;0.49;100.00;100330.66;1673650;83;21845;-56
2022/12/26 16:08:50;;;;;;;10.87;8.73;;;;;;;0.48;100.00;100345.66;1680372;83;21056;-56